page 8062 of 1009987 registered users

eBook PostsUsers

  1. 0star77roof registered @ 2013-06-26 00:20:43, last login @ 2013-06-26 00:20:43
  2. 0hole76place registered @ 2013-06-26 00:20:56, last login @ 2013-06-26 00:20:56
  3. 0storeweek72 registered @ 2013-06-26 00:21:36, last login @ 2013-06-26 00:21:36
  4. 0elbow7cod registered @ 2013-06-26 00:22:03, last login @ 2013-06-26 00:22:03
  5. 0bumpercourse40 registered @ 2013-06-26 00:22:06, last login @ 2013-06-26 00:22:06
  6. 0secure52wood registered @ 2013-06-26 00:22:13, last login @ 2013-06-26 00:22:13
  7. 0tradepipe82 registered @ 2013-06-26 00:22:23, last login @ 2013-06-26 00:22:23
  8. 0pondlyre2 registered @ 2013-06-26 00:22:37, last login @ 2013-06-26 00:22:37
  9. 0loaftemper3 registered @ 2013-06-26 00:22:53, last login @ 2013-06-26 00:22:53
  10. 0mallvalley06 registered @ 2013-06-26 00:23:00, last login @ 2013-06-26 00:23:00
  11. 0mom9dust registered @ 2013-06-26 00:23:46, last login @ 2013-06-26 00:23:46
  12. 0person58cart registered @ 2013-06-26 00:23:52, last login @ 2013-06-26 00:23:52
  13. 0weaponpyjama12 registered @ 2013-06-26 00:25:16, last login @ 2013-06-26 00:25:16
  14. 0veiltaxi10 registered @ 2013-06-26 00:26:27, last login @ 2013-06-26 00:26:27
  15. 0seal13tail registered @ 2013-06-26 00:27:33, last login @ 2013-06-26 00:27:33
  16. 0buffalo6 registered @ 2013-06-26 00:27:35, last login @ 2013-06-26 00:27:35
  17. 0busray16 registered @ 2013-06-26 00:28:11, last login @ 2013-06-26 00:28:11
  18. 0brandbaker81 registered @ 2013-06-26 00:29:37, last login @ 2013-06-26 00:29:37
  19. 0burn39uncle registered @ 2013-06-26 00:30:17, last login @ 2013-06-26 00:30:17
  20. 0crab24plier registered @ 2013-06-26 00:31:00, last login @ 2013-06-26 00:31:00
  21. 0orchid5space registered @ 2013-06-26 00:32:31, last login @ 2013-06-26 00:32:31
  22. 0wiera903994 registered @ 2013-06-26 00:33:45, last login @ 2013-06-26 00:33:45
  23. 0blood3clave registered @ 2013-06-26 00:33:52, last login @ 2013-06-26 00:33:52
  24. 0tunamary5 registered @ 2013-06-26 00:34:48, last login @ 2013-06-26 00:34:48
  25. 0riddlecart15 registered @ 2013-06-26 00:34:52, last login @ 2013-06-26 00:34:52
  26. 0celeryporter0 registered @ 2013-06-26 00:34:54, last login @ 2013-06-26 00:34:54
  27. 0leaf5hate registered @ 2013-06-26 00:35:12, last login @ 2013-06-26 00:35:12
  28. 0turnip19sunday registered @ 2013-06-26 00:35:19, last login @ 2013-06-26 00:35:19
  29. 0nylonnotify53 registered @ 2013-06-26 00:35:24, last login @ 2013-06-26 00:35:24
  30. 0flight0motion registered @ 2013-06-26 00:35:41, last login @ 2013-06-26 00:35:41
  31. 0innzerectionhelpc registered @ 2013-06-26 00:35:43, last login @ 2013-06-26 00:35:43
  32. 0rake18beach registered @ 2013-06-26 00:35:51, last login @ 2013-06-26 00:35:51
  33. 0chord2carol registered @ 2013-06-26 00:35:53, last login @ 2013-06-26 00:35:53
  34. 0iceboy65 registered @ 2013-06-26 00:36:05, last login @ 2013-06-26 00:36:05
  35. 0sale6quart registered @ 2013-06-26 00:36:51, last login @ 2013-06-26 00:36:51
  36. 0fowlwinter37 registered @ 2013-06-26 00:37:57, last login @ 2013-06-26 00:37:57
  37. 0renliar registered @ 2013-06-26 00:39:13, last login @ 2013-06-26 00:55:29
  38. 0ashvision0 registered @ 2013-06-26 00:39:26, last login @ 2013-06-26 00:39:26
  39. 0LucyHusk registered @ 2013-06-26 00:40:14, last login @ 2013-06-26 00:40:14
  40. 0kumuthini registered @ 2013-06-26 00:42:00, last login @ 2013-06-26 00:45:48
  41. 0fluteweek22 registered @ 2013-06-26 00:42:38, last login @ 2013-06-26 00:42:38
  42. 0storyreward4 registered @ 2013-06-26 00:42:55, last login @ 2013-06-26 00:42:55
  43. 0cave42street registered @ 2013-06-26 00:43:01, last login @ 2013-06-26 00:43:01
  44. 0tallulah registered @ 2013-06-26 00:43:15, last login @ 2013-06-26 00:43:15
  45. 0shelfmist8 registered @ 2013-06-26 00:43:51, last login @ 2013-06-26 00:43:51
  46. 0iran21maria registered @ 2013-06-26 00:44:02, last login @ 2013-06-26 00:44:02
  47. 0pencilrefund0 registered @ 2013-06-26 00:44:19, last login @ 2013-06-26 00:44:19
  48. 0fabiola418 registered @ 2013-06-26 00:45:18, last login @ 2013-06-26 00:45:18
  49. 0leaf74purple registered @ 2013-06-26 00:45:26, last login @ 2013-06-26 00:45:26
  50. 0lake04alloy registered @ 2013-06-26 00:47:31, last login @ 2013-06-26 00:47:31
  51. 0iciclecarbon4 registered @ 2013-06-26 00:48:46, last login @ 2013-06-26 00:48:46
  52. 0buttonhelium9 registered @ 2013-06-26 00:49:12, last login @ 2013-06-26 00:49:12
  53. 0conedime85 registered @ 2013-06-26 00:49:30, last login @ 2013-06-26 00:49:30
  54. 0button5dew registered @ 2013-06-26 00:49:45, last login @ 2013-06-26 00:49:45
  55. 0okrajason45 registered @ 2013-06-26 00:49:53, last login @ 2013-06-26 00:49:53
  56. 0brandy8sailor registered @ 2013-06-26 00:50:22, last login @ 2013-06-26 00:50:22
  57. 0floorcement87 registered @ 2013-06-26 00:50:52, last login @ 2013-06-26 00:50:52
  58. 0pansydugout34 registered @ 2013-06-26 00:52:35, last login @ 2013-06-26 00:52:35
  59. 0sodaphone1 registered @ 2013-06-26 00:52:44, last login @ 2013-06-26 00:52:44
  60. 0dogdrawer5 registered @ 2013-06-26 00:53:06, last login @ 2013-06-26 00:53:06
  61. 0skiing8cub registered @ 2013-06-26 00:53:21, last login @ 2013-06-26 00:53:21
  62. 0battlegreek7 registered @ 2013-06-26 00:53:21, last login @ 2013-06-26 00:53:21
  63. 0value53susan registered @ 2013-06-26 00:53:41, last login @ 2013-06-26 00:53:41
  64. 0silver3lunch registered @ 2013-06-26 00:53:42, last login @ 2013-06-26 00:53:42
  65. 0spacepolice1 registered @ 2013-06-26 00:54:17, last login @ 2013-06-26 00:54:17
  66. 0font14queen registered @ 2013-06-26 00:54:28, last login @ 2013-06-26 00:54:28
  67. 0woman62greece registered @ 2013-06-26 00:54:30, last login @ 2013-06-26 00:54:30
  68. 0taxhose8 registered @ 2013-06-26 00:54:51, last login @ 2013-06-26 00:54:51
  69. 0viola97mark registered @ 2013-06-26 00:55:00, last login @ 2013-06-26 00:55:00
  70. 0resultarm82 registered @ 2013-06-26 00:55:15, last login @ 2013-06-26 00:55:15
  71. 0glass8sex registered @ 2013-06-26 00:56:31, last login @ 2013-06-26 00:56:31
  72. 0result9roof registered @ 2013-06-26 00:56:46, last login @ 2013-06-26 00:56:46
  73. 0beast6lawyer registered @ 2013-06-26 00:57:01, last login @ 2013-06-26 00:57:01
  74. 0april6swim registered @ 2013-06-26 00:57:09, last login @ 2013-06-26 00:57:09
  75. 0author8vacuum registered @ 2013-06-26 00:57:13, last login @ 2013-06-26 00:57:13
  76. 0holenorth9 registered @ 2013-06-26 00:57:15, last login @ 2013-06-26 00:57:15
  77. 0porch6tv registered @ 2013-06-26 00:57:18, last login @ 2013-06-26 00:57:18
  78. 0parcel99satin registered @ 2013-06-26 00:57:24, last login @ 2013-06-26 00:57:24
  79. 0usenation08 registered @ 2013-06-26 00:57:48, last login @ 2013-06-26 00:57:48
  80. 0drake15shrimp registered @ 2013-06-26 00:58:14, last login @ 2013-06-26 00:58:14
  81. 0pajama80george registered @ 2013-06-26 00:58:59, last login @ 2013-06-26 00:58:59
  82. 0iris17parrot registered @ 2013-06-26 00:59:03, last login @ 2013-06-26 00:59:03
  83. 0sqllzjocsmq registered @ 2013-06-26 00:59:16, last login @ 2013-06-26 00:59:16
  84. 0porterwish65 registered @ 2013-06-26 00:59:29, last login @ 2013-06-26 00:59:29
  85. 0month23bomb registered @ 2013-06-26 00:59:30, last login @ 2013-06-26 00:59:30
  86. 0girdlecare45 registered @ 2013-06-26 00:59:49, last login @ 2013-06-26 00:59:49
  87. 0xaxasuarez registered @ 2013-06-26 01:02:53, last login @ 2013-06-26 01:02:53
  88. 0legal59slash registered @ 2013-06-26 01:03:04, last login @ 2013-06-26 01:03:04
  89. 0throat39rail registered @ 2013-06-26 01:04:05, last login @ 2013-06-26 01:04:05
  90. 0dog79bow registered @ 2013-06-26 01:04:29, last login @ 2013-06-26 01:04:29
  91. 0wish2price registered @ 2013-06-26 01:07:02, last login @ 2013-06-26 01:07:02
  92. 0singer25potato registered @ 2013-06-26 01:08:43, last login @ 2013-06-26 01:08:43
  93. 0hubhelp09 registered @ 2013-06-26 01:09:00, last login @ 2013-06-26 01:09:00
  94. 0abnorttat registered @ 2013-06-26 01:09:14, last login @ 2013-06-26 01:09:14
  95. 0dsoder1947 registered @ 2013-06-26 01:13:25, last login @ 2013-06-26 01:14:35
  96. 0farmbeggar6 registered @ 2013-06-26 01:14:19, last login @ 2013-06-26 01:14:19
  97. 0waiterbrow2 registered @ 2013-06-26 01:16:05, last login @ 2013-06-26 01:52:14
  98. 0organdrop3 registered @ 2013-06-26 01:17:13, last login @ 2013-06-26 01:17:13
  99. 0bargefoam85 registered @ 2013-06-26 01:17:22, last login @ 2013-06-26 01:55:08
  100. 0zaklina845932 registered @ 2013-06-26 01:19:40, last login @ 2013-06-26 01:19:40
  101. 0price5road registered @ 2013-06-26 01:20:59, last login @ 2013-06-26 01:20:59

More...

[8072] [8071] [8070] [8069] [8068] [8067] [8066] [8065] [8064] [8063] [8062] [8061] [8060] [8059] [8058] [8057] [8056] [8055] [8054] [8053] ...[1]
Back to Top